CEB9 RPLL-RPMD
Flight info
| Callsign | CEB9 |
|---|---|
| Flight time | N/A |
| Altitude | 33000 |
| Route | IPATA2R IPATA B462 MASBA W9A BN W9 RIMAR RIMAR2R |
| Aircraft | A321/M-SDE3FGHIRWY/LB1 |
Departure
| Time | 2026-05-05 11:45 |
|---|---|
| Airport | Ninoy Aquino International Airport (RPLL) |
Arrival
| Time | N/A |
|---|---|
| Airport | Francisco Bangoy International Airport (RPMD) |
| Time | Latitude | Longitude | Altitude | Speed | Heading |
|---|---|---|---|---|---|
| 2026-05-05 10:17 | 14.52191 | 121.00992 | 69 ft | 0 kts | 45° |
| 2026-05-05 11:33 | 14.52180 | 121.00981 | 60 ft | 4 kts | 45° |
| 2026-05-05 11:33 | 14.52160 | 121.00961 | 60 ft | 4 kts | 45° |
| 2026-05-05 11:34 | 14.52142 | 121.00942 | 69 ft | 2 kts | 45° |
| 2026-05-05 11:34 | 14.52128 | 121.00924 | 69 ft | 4 kts | 72° |
| 2026-05-05 11:34 | 14.52128 | 121.00900 | 69 ft | 4 kts | 121° |
| 2026-05-05 11:34 | 14.52144 | 121.00880 | 69 ft | 4 kts | 135° |
| 2026-05-05 11:35 | 14.52158 | 121.00866 | 69 ft | 0 kts | 135° |
| 2026-05-05 11:38 | 14.52137 | 121.00888 | 64 ft | 13 kts | 135° |
| 2026-05-05 11:38 | 14.52048 | 121.00980 | 64 ft | 19 kts | 135° |
| 2026-05-05 11:39 | 14.51948 | 121.01055 | 65 ft | 17 kts | 185° |
| 2026-05-05 11:39 | 14.51846 | 121.01085 | 63 ft | 17 kts | 136° |
| 2026-05-05 11:39 | 14.51736 | 121.01197 | 64 ft | 28 kts | 135° |
| 2026-05-05 11:39 | 14.51577 | 121.01361 | 64 ft | 35 kts | 135° |
| 2026-05-05 11:40 | 14.51407 | 121.01535 | 63 ft | 34 kts | 134° |
| 2026-05-05 11:40 | 14.51243 | 121.01706 | 61 ft | 34 kts | 137° |
| 2026-05-05 11:40 | 14.51084 | 121.01870 | 61 ft | 27 kts | 135° |
| 2026-05-05 11:40 | 14.50986 | 121.01886 | 69 ft | 16 kts | 232° |
| 2026-05-05 11:41 | 14.50932 | 121.01791 | 68 ft | 15 kts | 240° |
| 2026-05-05 11:41 | 14.50880 | 121.01698 | 65 ft | 16 kts | 239° |
| 2026-05-05 11:41 | 14.50810 | 121.01574 | 64 ft | 24 kts | 240° |
| 2026-05-05 11:41 | 14.50711 | 121.01396 | 64 ft | 33 kts | 240° |
| 2026-05-05 11:42 | 14.50584 | 121.01168 | 67 ft | 41 kts | 240° |
| 2026-05-05 11:42 | 14.50431 | 121.00892 | 64 ft | 48 kts | 240° |
| 2026-05-05 11:42 | 14.50252 | 121.00572 | 67 ft | 53 kts | 240° |
| 2026-05-05 11:42 | 14.50071 | 121.00250 | 60 ft | 50 kts | 240° |
| 2026-05-05 11:43 | 14.49958 | 121.00042 | 66 ft | 24 kts | 241° |
| 2026-05-05 11:43 | 14.49893 | 120.99967 | 66 ft | 9 kts | 190° |
| 2026-05-05 11:43 | 14.49837 | 120.99987 | 69 ft | 8 kts | 152° |
| 2026-05-05 11:43 | 14.49805 | 121.00028 | 66 ft | 7 kts | 90° |
| 2026-05-05 11:44 | 14.49822 | 121.00070 | 62 ft | 6 kts | 63° |
| 2026-05-05 11:44 | 14.49889 | 121.00193 | 65 ft | 48 kts | 60° |
| 2026-05-05 11:44 | 14.50172 | 121.00704 | 65 ft | 112 kts | 60° |
| 2026-05-05 11:44 | 14.50647 | 121.01558 | 66 ft | 160 kts | 60° |
| 2026-05-05 11:45 | 14.51229 | 121.02616 | 464 ft | 170 kts | 64° |
| 2026-05-05 11:45 | 14.51809 | 121.03685 | 1095 ft | 172 kts | 62° |
| 2026-05-05 11:45 | 14.52397 | 121.04747 | 1584 ft | 171 kts | 62° |
| 2026-05-05 11:45 | 14.52992 | 121.05814 | 2049 ft | 171 kts | 62° |
| 2026-05-05 11:46 | 14.53502 | 121.06918 | 2511 ft | 170 kts | 79° |
| 2026-05-05 11:46 | 14.53430 | 121.08099 | 2987 ft | 166 kts | 111° |
| 2026-05-05 11:46 | 14.52765 | 121.09060 | 3454 ft | 164 kts | 130° |
| 2026-05-05 11:46 | 14.51992 | 121.09912 | 3928 ft | 162 kts | 130° |
| 2026-05-05 11:47 | 14.51233 | 121.10744 | 4390 ft | 160 kts | 130° |
| 2026-05-05 11:47 | 14.50477 | 121.11572 | 4852 ft | 157 kts | 131° |
| 2026-05-05 11:47 | 14.49742 | 121.12377 | 5311 ft | 152 kts | 130° |
| 2026-05-05 11:47 | 14.49033 | 121.13154 | 5760 ft | 147 kts | 130° |
| 2026-05-05 11:48 | 14.47519 | 121.14823 | 6190 ft | 173 kts | 130° |
| 2026-05-05 11:48 | 14.46664 | 121.15765 | 6388 ft | 186 kts | 130° |
| 2026-05-05 11:48 | 14.45756 | 121.16763 | 6560 ft | 196 kts | 130° |
| 2026-05-05 11:49 | 14.44799 | 121.17814 | 6739 ft | 206 kts | 131° |
| 2026-05-05 11:49 | 14.43798 | 121.18912 | 6915 ft | 214 kts | 131° |
| 2026-05-05 11:49 | 14.42748 | 121.20062 | 7077 ft | 226 kts | 131° |
| 2026-05-05 11:49 | 14.41638 | 121.21275 | 7232 ft | 240 kts | 131° |
| 2026-05-05 11:50 | 14.40438 | 121.22587 | 7390 ft | 263 kts | 131° |
| 2026-05-05 11:50 | 14.39155 | 121.23991 | 7565 ft | 273 kts | 131° |
| 2026-05-05 11:50 | 14.37847 | 121.25423 | 7735 ft | 275 kts | 132° |
| 2026-05-05 11:50 | 14.36535 | 121.26856 | 7901 ft | 276 kts | 132° |
| 2026-05-05 11:51 | 14.35219 | 121.28295 | 8081 ft | 276 kts | 132° |
| 2026-05-05 11:51 | 14.33899 | 121.29732 | 8265 ft | 276 kts | 132° |
| 2026-05-05 11:51 | 14.32581 | 121.31172 | 8441 ft | 275 kts | 131° |
| 2026-05-05 11:51 | 14.31269 | 121.32609 | 8687 ft | 277 kts | 132° |
| 2026-05-05 11:52 | 14.29946 | 121.34057 | 8949 ft | 278 kts | 132° |
| 2026-05-05 11:52 | 14.28603 | 121.35527 | 9123 ft | 288 kts | 132° |
| 2026-05-05 11:52 | 14.27194 | 121.37071 | 9304 ft | 300 kts | 131° |
| 2026-05-05 11:52 | 14.25757 | 121.38644 | 9477 ft | 303 kts | 131° |
| 2026-05-05 11:53 | 14.24308 | 121.40229 | 10045 ft | 301 kts | 131° |
| 2026-05-05 11:53 | 14.22872 | 121.41798 | 10642 ft | 307 kts | 132° |
| 2026-05-05 11:53 | 14.21360 | 121.43450 | 10763 ft | 327 kts | 132° |
| 2026-05-05 11:53 | 14.19755 | 121.45202 | 10870 ft | 345 kts | 132° |
| 2026-05-05 11:54 | 14.18646 | 121.46414 | 10960 ft | 357 kts | 132° |
| 2026-05-05 11:54 | 14.16342 | 121.48931 | 11105 ft | 378 kts | 132° |